Time;durP1;ratioP1;P1;durP2;ratioP2;P2;SDS_P1;SDS_P2;PMS_P1;PMS_P2;Temp;Humidity;BMP_temperature;BMP_pressure;BME280_temperature;BME280_humidity;BME280_pressure;Samples;Min_cycle;Max_cycle;Signal;HPM_P1;HPM_P2
2021/08/26 00:07:29;;;;;;;9.27;5.77;;;;;;;11.94;98.42;96078.63;5070371;28;20118;-75
2021/08/26 00:09:55;;;;;;;9.90;6.50;;;;;;;11.93;98.64;96076.97;5064198;28;20063;-75
2021/08/26 00:12:21;;;;;;;11.40;6.97;;;;;;;11.92;98.87;96077.97;5081776;28;20492;-75
2021/08/26 00:14:47;;;;;;;9.67;6.07;;;;;;;11.89;99.58;96075.69;5081126;28;20045;-75
2021/08/26 00:17:14;;;;;;;9.30;6.30;;;;;;;11.79;99.98;96078.50;5065960;28;20044;-75
2021/08/26 00:19:41;;;;;;;10.23;6.37;;;;;;;11.78;100.00;96074.22;5064522;28;20481;-75
2021/08/26 00:22:07;;;;;;;11.83;6.37;;;;;;;11.77;100.00;96071.75;5060801;28;20485;-75
2021/08/26 00:24:33;;;;;;;10.87;6.33;;;;;;;11.74;100.00;96064.19;5087972;28;20060;-75
2021/08/26 00:26:58;;;;;;;10.17;6.60;;;;;;;11.79;100.00;96049.50;5071327;28;20062;-75
2021/08/26 00:29:24;;;;;;;9.97;6.13;;;;;;;11.80;100.00;96056.44;5080539;28;20443;-75
2021/08/26 00:31:50;;;;;;;12.17;7.07;;;;;;;11.83;100.00;96055.25;5082241;28;20036;-75
2021/08/26 00:34:15;;;;;;;10.47;6.80;;;;;;;11.87;100.00;96053.97;5084749;28;20036;-76
2021/08/26 00:36:41;;;;;;;11.00;6.73;;;;;;;11.90;100.00;96055.41;5076226;28;20036;-75
2021/08/26 00:39:07;;;;;;;12.13;6.70;;;;;;;11.90;100.00;96056.25;5076403;28;20040;-75
2021/08/26 00:41:32;;;;;;;10.87;6.60;;;;;;;11.86;100.00;96046.22;5079980;28;20025;-75
2021/08/26 00:43:58;;;;;;;12.33;6.63;;;;;;;11.72;100.00;96043.28;5079676;28;20038;-75
2021/08/26 00:46:25;;;;;;;10.50;6.47;;;;;;;11.68;100.00;96041.16;5067667;28;20024;-76
2021/08/26 00:48:51;;;;;;;11.57;7.07;;;;;;;11.71;100.00;96030.28;5063176;28;20020;-76
2021/08/26 00:51:17;;;;;;;13.43;7.13;;;;;;;11.67;100.00;96031.59;5077451;28;20036;-75
2021/08/26 00:53:44;;;;;;;10.77;7.27;;;;;;;11.61;100.00;96027.03;5074599;28;20052;-75
2021/08/26 00:56:15;;;;;;;14.60;8.10;;;;;;;11.64;100.00;96029.34;5080356;28;20115;-75
2021/08/26 00:58:44;;;;;;;11.30;7.03;;;;;;;11.69;100.00;96029.63;5069042;28;20083;-75
2021/08/26 01:01:10;;;;;;;15.10;8.10;;;;;;;11.62;100.00;96029.50;5082128;28;20027;-75
2021/08/26 01:03:52;;;;;;;11.60;7.50;;;;;;;11.65;100.00;96030.97;5075763;28;20025;-75
2021/08/26 01:06:29;;;;;;;12.13;7.80;;;;;;;11.65;100.00;96023.06;5069833;28;20032;-75
2021/08/26 01:09:09;;;;;;;11.17;7.03;;;;;;;11.72;100.00;96021.38;5070880;28;20035;-75
2021/08/26 01:11:38;;;;;;;11.57;7.30;;;;;;;11.66;100.00;96019.44;5073634;28;20028;-75
2021/08/26 01:14:05;;;;;;;10.10;6.57;;;;;;;11.64;100.00;96024.06;5068909;28;20027;-76
2021/08/26 01:16:35;;;;;;;10.67;7.20;;;;;;;11.68;100.00;96005.09;5072096;28;20038;-75
2021/08/26 01:19:01;;;;;;;11.90;7.17;;;;;;;11.71;100.00;96019.75;5065136;28;20028;-75
2021/08/26 01:21:26;;;;;;;12.43;8.73;;;;;;;11.65;100.00;96010.72;5081413;28;20018;-76
2021/08/26 01:23:58;;;;;;;13.00;7.90;;;;;;;11.72;100.00;96006.41;5080205;28;20120;-76
2021/08/26 01:26:29;;;;;;;12.63;7.60;;;;;;;11.70;100.00;96018.09;5075637;28;20516;-75
2021/08/26 01:29:00;;;;;;;13.70;8.47;;;;;;;11.72;100.00;96024.03;5074366;28;20028;-75
2021/08/26 01:31:26;;;;;;;11.07;7.70;;;;;;;11.70;100.00;96020.72;5084607;28;20039;-75
2021/08/26 01:33:56;;;;;;;12.47;7.63;;;;;;;11.66;100.00;96017.63;5073274;28;20020;-75
2021/08/26 01:36:40;;;;;;;14.23;8.43;;;;;;;11.78;100.00;96021.53;5086267;28;20461;-76
2021/08/26 01:39:11;;;;;;;12.60;7.43;;;;;;;11.71;100.00;96017.13;5074303;28;20483;-75
2021/08/26 01:41:42;;;;;;;13.17;8.70;;;;;;;11.74;100.00;96016.78;5080957;28;20482;-75
2021/08/26 01:44:10;;;;;;;13.30;7.53;;;;;;;11.73;100.00;96012.47;5071589;28;20603;-76
2021/08/26 01:46:36;;;;;;;12.77;8.27;;;;;;;11.72;100.00;96016.13;5071247;28;20473;-75
2021/08/26 01:49:02;;;;;;;16.67;9.03;;;;;;;11.82;100.00;96005.38;5070603;28;20063;-75
2021/08/26 01:51:27;;;;;;;13.57;8.70;;;;;;;11.76;100.00;96006.88;5071007;28;20056;-75
2021/08/26 01:53:54;;;;;;;11.17;7.10;;;;;;;11.68;100.00;95999.84;5077945;28;20119;-75
2021/08/26 01:56:20;;;;;;;12.03;7.87;;;;;;;11.67;100.00;95998.22;5073396;28;20029;-75
2021/08/26 01:58:46;;;;;;;12.43;7.93;;;;;;;11.67;100.00;96000.00;5070680;28;20039;-75
2021/08/26 02:01:11;;;;;;;13.43;8.83;;;;;;;11.62;100.00;95999.69;5069685;28;20082;-75
2021/08/26 02:03:38;;;;;;;12.57;8.20;;;;;;;11.66;100.00;95987.81;5060415;28;20501;-75
2021/08/26 02:06:04;;;;;;;11.57;7.67;;;;;;;11.70;100.00;95991.75;5072689;28;20029;-75
2021/08/26 02:08:29;;;;;;;12.17;8.30;;;;;;;11.62;100.00;95987.34;5086970;28;20055;-75
2021/08/26 02:10:55;;;;;;;12.67;7.87;;;;;;;11.63;100.00;95991.63;5081504;28;20037;-76
2021/08/26 02:13:20;;;;;;;13.10;7.83;;;;;;;11.66;100.00;95988.63;5078636;28;20067;-75
2021/08/26 02:15:46;;;;;;;13.23;7.83;;;;;;;11.67;100.00;95984.19;5075026;28;20029;-75
2021/08/26 02:18:12;;;;;;;12.10;7.80;;;;;;;11.66;100.00;95974.66;5083236;28;20124;-75
2021/08/26 02:20:38;;;;;;;13.17;8.30;;;;;;;11.61;100.00;95964.66;5074667;28;20032;-76
2021/08/26 02:23:04;;;;;;;13.87;7.73;;;;;;;11.63;100.00;95959.19;5074125;28;20028;-76
2021/08/26 02:25:29;;;;;;;12.53;8.20;;;;;;;11.54;100.00;95967.16;5081386;28;20027;-75
2021/08/26 02:27:55;;;;;;;12.17;7.50;;;;;;;11.42;100.00;95968.50;5077741;28;20036;-75
2021/08/26 02:30:21;;;;;;;14.30;8.03;;;;;;;11.35;100.00;95961.47;5087674;28;20030;-75
2021/08/26 02:32:46;;;;;;;16.07;8.87;;;;;;;11.36;100.00;95953.38;5077507;28;20020;-78
2021/08/26 02:35:12;;;;;;;13.30;7.60;;;;;;;11.43;100.00;95953.53;5084568;28;20047;-76
2021/08/26 02:37:38;;;;;;;12.13;7.90;;;;;;;11.29;100.00;95947.16;5079713;28;20043;-77
2021/08/26 02:40:05;;;;;;;15.10;8.80;;;;;;;11.24;100.00;95947.69;5056353;28;20047;-78
2021/08/26 02:42:31;;;;;;;13.73;8.30;;;;;;;11.26;100.00;95945.69;5077973;28;20032;-77
2021/08/26 02:44:56;;;;;;;16.63;8.93;;;;;;;11.21;100.00;95945.41;5076809;28;20387;-74
2021/08/26 02:47:22;;;;;;;13.20;8.23;;;;;;;11.27;100.00;95931.56;5047754;28;20032;-78
2021/08/26 02:49:48;;;;;;;16.50;7.97;;;;;;;11.27;100.00;95922.84;5074601;28;20024;-78
2021/08/26 02:52:14;;;;;;;13.30;8.10;;;;;;;11.29;100.00;95920.84;5077971;28;20035;-76
2021/08/26 02:54:40;;;;;;;14.37;7.87;;;;;;;11.23;100.00;95911.00;5082429;28;20618;-77
2021/08/26 02:57:06;;;;;;;14.93;8.70;;;;;;;11.28;100.00;95909.50;5074889;28;20036;-76
2021/08/26 02:59:32;;;;;;;16.00;8.77;;;;;;;11.27;100.00;95897.34;5079113;28;20028;-75
2021/08/26 03:01:58;;;;;;;15.70;8.97;;;;;;;11.30;100.00;95901.41;5079394;28;20082;-78
2021/08/26 03:04:24;;;;;;;13.20;8.73;;;;;;;11.23;100.00;95911.00;5080237;28;20021;-75
2021/08/26 03:06:49;;;;;;;13.30;8.67;;;;;;;11.33;100.00;95911.59;5068190;28;20082;-76
2021/08/26 03:09:15;;;;;;;14.27;8.53;;;;;;;11.36;100.00;95900.72;5065195;28;20024;-76
2021/08/26 03:11:40;;;;;;;13.13;8.00;;;;;;;11.39;100.00;95891.69;5070416;28;20036;-77
2021/08/26 03:14:06;;;;;;;13.07;8.37;;;;;;;11.36;100.00;95899.91;5073502;28;20111;-78
2021/08/26 03:16:32;;;;;;;14.77;8.73;;;;;;;11.26;100.00;95913.28;5078026;28;20027;-77
2021/08/26 03:18:58;;;;;;;19.57;9.17;;;;;;;11.30;100.00;95919.84;5072697;28;20073;-77
2021/08/26 03:21:24;;;;;;;15.87;9.20;;;;;;;11.27;100.00;95926.28;5081989;28;20032;-76
2021/08/26 03:23:49;;;;;;;16.37;8.40;;;;;;;11.31;100.00;95918.88;5067757;28;20044;-78
2021/08/26 03:26:16;;;;;;;18.27;8.70;;;;;;;11.31;100.00;95913.59;5077001;28;20020;-78
2021/08/26 03:28:42;;;;;;;11.87;7.90;;;;;;;11.28;100.00;95913.94;5075190;28;20054;-77
2021/08/26 03:31:07;;;;;;;13.70;8.20;;;;;;;11.30;100.00;95922.47;5071951;28;20040;-77
2021/08/26 03:33:33;;;;;;;11.73;7.97;;;;;;;11.32;100.00;95923.94;5071000;28;20111;-77
2021/08/26 03:36:00;;;;;;;17.20;9.27;;;;;;;11.25;100.00;95919.56;5065861;28;21222;-76
2021/08/26 03:38:26;;;;;;;13.83;8.47;;;;;;;11.21;100.00;95919.06;5075963;28;20247;-76
2021/08/26 03:40:52;;;;;;;13.60;8.70;;;;;;;11.23;100.00;95922.38;5067872;28;20033;-78
2021/08/26 03:43:18;;;;;;;12.87;8.40;;;;;;;11.24;100.00;95926.63;5072259;28;20119;-76
2021/08/26 03:45:44;;;;;;;14.50;8.57;;;;;;;11.21;100.00;95924.34;5076774;28;20040;-77
2021/08/26 03:48:09;;;;;;;13.23;7.83;;;;;;;11.25;100.00;95920.38;5071905;28;20036;-77
2021/08/26 03:50:35;;;;;;;12.80;8.33;;;;;;;11.26;100.00;95916.72;5051032;28;20402;-77
2021/08/26 03:53:01;;;;;;;12.43;8.60;;;;;;;11.26;100.00;95910.66;5077650;28;20029;-75
2021/08/26 03:55:26;;;;;;;14.17;8.73;;;;;;;11.26;100.00;95914.09;5072643;28;20059;-77
2021/08/26 03:57:52;;;;;;;12.93;8.53;;;;;;;11.29;100.00;95911.13;5079465;28;20474;-76
2021/08/26 04:00:18;;;;;;;13.87;9.47;;;;;;;11.30;100.00;95909.31;5057592;28;20050;-78
2021/08/26 04:02:44;;;;;;;13.70;8.50;;;;;;;11.27;100.00;95904.41;5077787;28;20028;-77
2021/08/26 04:05:09;;;;;;;15.30;9.33;;;;;;;11.30;100.00;95906.69;5075415;28;20039;-76
2021/08/26 04:07:35;;;;;;;14.73;8.60;;;;;;;11.28;100.00;95912.13;5056373;28;20071;-78
2021/08/26 04:10:03;;;;;;;14.13;9.10;;;;;;;11.24;100.00;95910.03;5079732;28;20127;-76
2021/08/26 04:12:28;;;;;;;14.23;9.20;;;;;;;11.26;100.00;95905.38;5074960;28;20039;-78
2021/08/26 04:14:54;;;;;;;13.60;8.97;;;;;;;11.28;100.00;95911.31;5079084;28;20028;-78
2021/08/26 04:17:20;;;;;;;15.07;8.83;;;;;;;11.27;100.00;95915.75;5071009;28;20112;-76
2021/08/26 04:19:46;;;;;;;14.20;9.23;;;;;;;11.23;100.00;95905.72;5079408;28;20032;-78
2021/08/26 04:22:13;;;;;;;15.80;8.90;;;;;;;11.37;100.00;95905.03;5076378;28;20435;-77
2021/08/26 04:24:39;;;;;;;16.07;9.00;;;;;;;11.33;100.00;95901.06;5059584;28;20050;-77
2021/08/26 04:27:05;;;;;;;12.87;8.77;;;;;;;11.36;100.00;95899.91;5072460;28;20080;-77
2021/08/26 04:29:31;;;;;;;13.97;8.67;;;;;;;11.35;100.00;95903.56;5072720;28;20096;-76
2021/08/26 04:31:57;;;;;;;11.93;8.17;;;;;;;11.33;100.00;95898.44;5082170;28;20484;-77
2021/08/26 04:34:22;;;;;;;16.63;9.13;;;;;;;11.28;100.00;95898.16;5077444;28;20053;-78
2021/08/26 04:36:48;;;;;;;12.73;9.40;;;;;;;11.29;100.00;95905.03;5077502;28;20016;-76
2021/08/26 04:39:14;;;;;;;12.37;8.67;;;;;;;11.28;100.00;95901.59;5076516;28;20533;-78
2021/08/26 04:41:40;;;;;;;13.97;10.03;;;;;;;11.37;100.00;95898.91;5065152;28;20565;-78
2021/08/26 04:44:07;;;;;;;16.57;8.87;;;;;;;11.43;100.00;95893.78;5057566;28;20039;-77
2021/08/26 04:46:33;;;;;;;13.77;8.80;;;;;;;11.37;100.00;95886.59;5069753;28;20051;-79
2021/08/26 04:48:58;;;;;;;13.87;8.73;;;;;;;11.43;100.00;95882.44;5069932;28;20528;-78
2021/08/26 04:51:24;;;;;;;14.13;9.73;;;;;;;11.44;100.00;95886.72;5071197;28;20032;-78
2021/08/26 04:53:50;;;;;;;15.83;9.63;;;;;;;11.45;100.00;95894.44;5056715;28;20028;-78
2021/08/26 04:56:16;;;;;;;13.33;9.40;;;;;;;11.51;100.00;95899.03;5071469;28;20028;-78
2021/08/26 04:58:41;;;;;;;13.70;8.87;;;;;;;11.42;100.00;95892.16;5077835;28;20024;-76
2021/08/26 05:01:07;;;;;;;15.07;9.60;;;;;;;11.41;100.00;95892.34;5083505;28;20049;-78
2021/08/26 05:03:33;;;;;;;16.33;10.50;;;;;;;11.35;100.00;95899.09;5074248;28;20127;-79
2021/08/26 05:06:02;;;;;;;15.13;9.10;;;;;;;11.44;100.00;95894.63;5053445;28;20277;-78
2021/08/26 05:08:28;;;;;;;16.67;10.13;;;;;;;11.44;100.00;95892.81;5074297;28;20035;-79
2021/08/26 05:10:54;;;;;;;17.53;9.83;;;;;;;11.45;100.00;95883.91;5065028;28;20037;-79
2021/08/26 05:13:19;;;;;;;13.23;9.40;;;;;;;11.50;100.00;95886.84;5057596;28;20036;-79
2021/08/26 05:15:46;;;;;;;13.83;9.73;;;;;;;11.37;100.00;95880.50;5074054;28;20488;-78
2021/08/26 05:18:13;;;;;;;16.40;10.77;;;;;;;11.40;100.00;95888.88;5071674;28;20068;-79
2021/08/26 05:20:38;;;;;;;16.83;10.23;;;;;;;11.46;100.00;95884.72;5049177;28;20017;-76
2021/08/26 05:23:04;;;;;;;13.67;9.47;;;;;;;11.48;100.00;95888.84;5061550;28;20061;-79
2021/08/26 05:25:30;;;;;;;15.33;9.60;;;;;;;11.51;100.00;95888.50;5069893;28;20029;-78
2021/08/26 05:27:56;;;;;;;14.43;9.67;;;;;;;11.55;100.00;95891.59;5070336;28;20037;-74
2021/08/26 05:30:22;;;;;;;14.17;10.10;;;;;;;11.49;100.00;95892.28;5066468;28;20063;-79
2021/08/26 05:32:48;;;;;;;14.53;10.13;;;;;;;11.50;100.00;95896.53;5051010;28;20055;-78
2021/08/26 05:35:14;;;;;;;14.83;10.17;;;;;;;11.48;100.00;95899.38;5071105;28;20032;-78
2021/08/26 05:37:40;;;;;;;16.33;10.63;;;;;;;11.49;100.00;95911.53;5062440;28;20048;-78
2021/08/26 05:40:06;;;;;;;16.30;10.50;;;;;;;11.48;100.00;95904.63;5067291;28;20020;-78
2021/08/26 05:42:32;;;;;;;13.73;10.07;;;;;;;11.61;100.00;95904.06;5074866;28;20048;-78
2021/08/26 05:44:58;;;;;;;21.33;10.13;;;;;;;11.51;100.00;95917.44;5056355;28;20102;-78
2021/08/26 05:47:23;;;;;;;15.73;11.07;;;;;;;11.54;100.00;95911.84;5077912;28;20036;-76
2021/08/26 05:49:49;;;;;;;14.37;9.47;;;;;;;11.55;100.00;95918.75;5076235;28;20040;-76
2021/08/26 05:52:15;;;;;;;14.50;10.33;;;;;;;11.49;100.00;95922.06;5065397;28;20044;-77
2021/08/26 05:54:41;;;;;;;15.73;10.53;;;;;;;11.54;100.00;95918.94;5075305;28;20032;-78
2021/08/26 05:57:06;;;;;;;18.20;10.63;;;;;;;11.52;100.00;95911.19;5077493;28;20029;-79
2021/08/26 05:59:32;;;;;;;17.87;10.53;;;;;;;11.64;100.00;95916.09;5074146;28;20100;-75
2021/08/26 06:02:00;;;;;;;16.17;10.97;;;;;;;11.62;100.00;95910.97;5077355;28;20032;-77
2021/08/26 06:04:27;;;;;;;16.37;10.63;;;;;;;11.65;100.00;95915.06;5051932;28;20024;-77
2021/08/26 06:06:53;;;;;;;13.73;9.00;;;;;;;11.74;100.00;95908.78;5074651;28;20036;-78
2021/08/26 06:09:19;;;;;;;13.87;9.43;;;;;;;11.74;100.00;95914.03;5074002;28;20150;-77
2021/08/26 06:11:45;;;;;;;17.40;11.33;;;;;;;11.73;100.00;95915.00;5054492;28;20029;-78
2021/08/26 06:14:11;;;;;;;17.60;10.83;;;;;;;11.74;100.00;95912.22;5069680;28;20085;-78
2021/08/26 06:16:37;;;;;;;16.97;11.07;;;;;;;11.72;100.00;95918.66;5073349;28;20725;-79
2021/08/26 06:19:03;;;;;;;15.40;11.00;;;;;;;11.65;100.00;95920.34;5074813;28;20035;-75
2021/08/26 06:21:29;;;;;;;18.47;11.90;;;;;;;11.82;100.00;95915.78;5078472;28;20043;-75
2021/08/26 06:23:54;;;;;;;17.20;11.80;;;;;;;11.72;100.00;95921.28;5073251;28;20432;-78
2021/08/26 06:26:20;;;;;;;16.03;11.83;;;;;;;11.77;100.00;95919.78;5076945;28;20103;-78
2021/08/26 06:28:46;;;;;;;17.73;12.43;;;;;;;11.82;100.00;95916.63;5062709;28;20028;-78
2021/08/26 06:31:13;;;;;;;19.83;13.20;;;;;;;11.91;100.00;95920.06;5062126;28;20037;-78
2021/08/26 06:33:39;;;;;;;19.40;11.63;;;;;;;11.89;100.00;95916.78;5076527;28;20031;-77
2021/08/26 06:36:05;;;;;;;17.67;12.50;;;;;;;11.87;100.00;95910.84;5079020;28;20029;-78
2021/08/26 06:38:31;;;;;;;20.57;13.40;;;;;;;11.96;100.00;95912.44;5077772;28;20090;-78
2021/08/26 06:40:57;;;;;;;22.40;13.63;;;;;;;11.97;100.00;95911.44;5081133;28;20036;-78
2021/08/26 06:43:22;;;;;;;23.80;13.20;;;;;;;12.00;100.00;95918.97;5081045;28;20408;-78
2021/08/26 06:45:48;;;;;;;21.50;13.77;;;;;;;12.09;100.00;95911.84;5078160;28;20028;-79
2021/08/26 06:48:14;;;;;;;20.37;14.10;;;;;;;12.24;100.00;95916.19;5055821;28;20041;-78
2021/08/26 06:50:39;;;;;;;19.53;12.60;;;;;;;12.21;100.00;95897.25;5058496;28;20033;-79
2021/08/26 06:53:05;;;;;;;23.80;13.90;;;;;;;12.22;100.00;95904.16;5074807;28;20040;-78
2021/08/26 06:55:31;;;;;;;22.20;12.60;;;;;;;12.29;100.00;95905.09;5071564;28;20025;-75
2021/08/26 06:57:57;;;;;;;19.57;13.27;;;;;;;12.33;100.00;95903.72;5060004;28;20032;-78
2021/08/26 07:00:23;;;;;;;18.37;12.50;;;;;;;12.32;100.00;95906.56;5057836;28;20052;-79
2021/08/26 07:02:48;;;;;;;16.73;12.00;;;;;;;12.23;100.00;95913.72;5054379;28;20043;-78
2021/08/26 07:05:14;;;;;;;16.00;11.83;;;;;;;12.25;100.00;95919.63;5072083;28;20105;-77
2021/08/26 07:07:40;;;;;;;18.90;13.10;;;;;;;12.38;100.00;95906.66;5076079;28;20032;-79
2021/08/26 07:10:06;;;;;;;18.40;13.03;;;;;;;12.39;100.00;95913.56;5074781;28;20032;-78
2021/08/26 07:12:32;;;;;;;19.43;13.63;;;;;;;12.43;100.00;95909.56;5075454;28;20105;-79
2021/08/26 07:14:59;;;;;;;20.50;12.97;;;;;;;12.40;100.00;95909.94;5073731;28;20052;-76
2021/08/26 07:17:25;;;;;;;20.70;13.70;;;;;;;12.28;100.00;95919.28;5069384;28;20086;-79
2021/08/26 07:19:51;;;;;;;20.07;12.00;;;;;;;12.24;100.00;95912.72;5067700;28;20036;-78
2021/08/26 07:22:17;;;;;;;18.33;12.40;;;;;;;12.32;100.00;95912.66;5074091;28;20028;-77
2021/08/26 07:24:43;;;;;;;17.47;12.60;;;;;;;12.31;100.00;95904.91;5076307;28;20527;-74
2021/08/26 07:27:10;;;;;;;19.13;12.20;;;;;;;12.20;100.00;95909.59;5073213;28;20046;-78
2021/08/26 07:29:36;;;;;;;19.27;13.27;;;;;;;12.27;100.00;95912.34;5074617;28;20028;-75
2021/08/26 07:32:02;;;;;;;20.90;13.73;;;;;;;12.23;100.00;95917.16;5076902;28;20084;-77
2021/08/26 07:34:28;;;;;;;20.27;13.67;;;;;;;12.25;100.00;95909.09;5072675;28;20481;-78
2021/08/26 07:36:53;;;;;;;18.30;12.97;;;;;;;12.36;100.00;95908.66;5078926;28;20108;-76
2021/08/26 07:39:19;;;;;;;18.13;13.83;;;;;;;12.39;100.00;95912.75;5078372;28;20452;-77
2021/08/26 07:41:46;;;;;;;17.83;13.27;;;;;;;12.26;100.00;95924.72;5078489;28;20143;-79
2021/08/26 07:44:12;;;;;;;16.67;13.13;;;;;;;12.36;100.00;95913.94;5056284;28;20040;-77
2021/08/26 07:46:37;;;;;;;19.83;14.30;;;;;;;12.38;100.00;95906.66;5071784;28;20016;-77
2021/08/26 07:49:04;;;;;;;21.73;14.67;;;;;;;12.31;100.00;95907.53;5075852;28;20036;-77
2021/08/26 07:51:30;;;;;;;22.50;15.07;;;;;;;12.45;100.00;95912.06;5073763;28;20637;-76
2021/08/26 07:53:55;;;;;;;21.33;14.77;;;;;;;12.52;100.00;95912.16;5069024;28;20047;-77
2021/08/26 07:56:21;;;;;;;18.07;13.50;;;;;;;12.63;100.00;95925.72;5084413;28;20056;-76
2021/08/26 07:58:47;;;;;;;21.77;15.07;;;;;;;12.54;100.00;95920.69;5079809;28;20012;-76
2021/08/26 08:01:12;;;;;;;28.33;21.37;;;;;;;12.46;100.00;95914.50;5081094;28;20028;-77
2021/08/26 08:03:38;;;;;;;22.97;17.13;;;;;;;12.54;100.00;95911.00;5081392;28;20401;-76
2021/08/26 08:06:05;;;;;;;24.57;17.60;;;;;;;12.54;100.00;95912.78;5079344;28;20077;-76
2021/08/26 08:08:31;;;;;;;21.60;16.17;;;;;;;12.57;100.00;95912.44;5085686;28;20066;-77
2021/08/26 08:10:58;;;;;;;24.13;16.43;;;;;;;12.54;100.00;95910.13;5080646;28;20077;-76
2021/08/26 08:13:24;;;;;;;25.00;17.37;;;;;;;12.64;100.00;95910.69;5071316;28;20742;-76
2021/08/26 08:15:50;;;;;;;24.20;18.80;;;;;;;12.58;100.00;95906.16;5075330;28;20032;-76
2021/08/26 08:18:16;;;;;;;27.47;21.63;;;;;;;12.73;100.00;95909.63;5059509;28;20059;-77
2021/08/26 08:20:42;;;;;;;27.53;22.10;;;;;;;12.59;100.00;95913.06;5072890;28;20024;-75
2021/08/26 08:23:08;;;;;;;27.73;22.00;;;;;;;12.77;100.00;95910.91;5063017;28;20052;-75
2021/08/26 08:25:34;;;;;;;29.70;23.40;;;;;;;12.86;100.00;95915.09;5075083;28;20016;-75
2021/08/26 08:28:00;;;;;;;28.20;22.43;;;;;;;12.96;100.00;95914.84;5080757;28;20402;-75
2021/08/26 08:30:26;;;;;;;30.03;22.43;;;;;;;12.95;100.00;95911.38;5073395;28;20111;-75
2021/08/26 08:32:57;;;;;;;26.30;21.37;;;;;;;12.93;100.00;95915.19;5079099;28;20105;-75
2021/08/26 08:35:23;;;;;;;25.73;19.50;;;;;;;12.75;100.00;95907.66;5071296;28;20036;-74
2021/08/26 08:37:50;;;;;;;30.80;21.30;;;;;;;13.15;100.00;95911.66;5074846;28;20501;-74
2021/08/26 08:40:16;;;;;;;25.33;21.07;;;;;;;13.17;100.00;95912.28;5081820;28;20028;-74
2021/08/26 08:42:45;;;;;;;25.50;19.07;;;;;;;12.85;100.00;95913.47;5069827;28;20024;-77
2021/08/26 08:45:12;;;;;;;22.30;18.77;;;;;;;12.98;100.00;95904.94;5068955;28;20512;-76
2021/08/26 08:47:39;;;;;;;23.73;17.67;;;;;;;13.20;100.00;95900.53;5076564;28;20165;-74
2021/08/26 08:50:06;;;;;;;21.50;18.97;;;;;;;13.33;100.00;95898.09;5073683;28;20033;-76
2021/08/26 08:52:39;;;;;;;22.50;17.60;;;;;;;13.46;100.00;95886.88;5073883;28;20465;-75
2021/08/26 08:55:10;;;;;;;18.02;14.77;;;;;;;13.55;100.00;95885.75;5080827;28;20381;-75
2021/08/26 08:57:40;;;;;;;16.57;14.23;;;;;;;13.55;100.00;95891.06;5062311;28;20033;-75
2021/08/26 09:00:15;;;;;;;18.03;13.63;;;;;;;13.71;100.00;95892.63;5052732;28;20035;-78
2021/08/26 09:02:41;;;;;;;16.60;13.77;;;;;;;13.82;100.00;95889.50;5069372;28;20052;-75
2021/08/26 09:05:07;;;;;;;15.10;12.50;;;;;;;13.80;100.00;95886.22;5059395;28;20074;-75
2021/08/26 09:07:35;;;;;;;12.20;9.70;;;;;;;13.84;100.00;95895.41;5053074;28;20090;-75
2021/08/26 09:10:03;;;;;;;8.67;6.03;;;;;;;14.00;100.00;95889.06;5066629;28;20029;-75
2021/08/26 09:12:58;;;;;;;8.43;5.47;;;;;;;14.22;100.00;95895.19;5088169;28;20111;-75
2021/08/26 09:15:30;;;;;;;9.43;7.03;;;;;;;14.31;100.00;95894.00;5058727;28;20551;-76
2021/08/26 09:18:19;;;;;;;10.07;7.17;;;;;;;14.23;100.00;95896.81;5088652;28;20512;-76
2021/08/26 09:20:56;;;;;;;7.13;5.53;;;;;;;13.95;100.00;95896.75;5077021;28;20473;-75
2021/08/26 09:23:25;;;;;;;9.00;6.30;;;;;;;13.82;100.00;95894.78;5085888;28;20040;-76
2021/08/26 09:25:52;;;;;;;8.50;6.07;;;;;;;13.87;100.00;95897.69;5081281;28;20457;-75
2021/08/26 09:28:29;;;;;;;8.97;6.90;;;;;;;13.89;100.00;95900.97;5083598;28;20085;-75
2021/08/26 09:31:33;;;;;;;9.57;7.13;;;;;;;14.05;100.00;95910.47;5092844;28;20039;-75
2021/08/26 09:34:02;;;;;;;10.43;8.00;;;;;;;14.04;100.00;95911.47;5021901;28;20037;-75
2021/08/26 09:36:38;;;;;;;9.67;7.60;;;;;;;14.26;100.00;95907.00;4999107;28;20045;-75
2021/08/26 09:39:12;;;;;;;14.60;11.13;;;;;;;14.09;100.00;95913.56;5027810;28;20127;-76
2021/08/26 09:41:45;;;;;;;9.37;6.97;;;;;;;14.19;100.00;95916.72;5072084;28;20028;-75
2021/08/26 09:44:28;;;;;;;15.15;11.70;;;;;;;14.11;100.00;95914.19;5067511;28;20170;-76
2021/08/26 09:46:56;;;;;;;7.17;5.30;;;;;;;13.85;100.00;95912.13;5088413;28;20103;-76
2021/08/26 09:49:24;;;;;;;7.10;4.77;;;;;;;13.98;100.00;95908.75;5078195;28;20100;-76
2021/08/26 09:52:03;;;;;;;8.50;4.17;;;;;;;13.77;100.00;95910.38;5066930;28;20123;-75
2021/08/26 09:54:34;;;;;;;6.13;3.90;;;;;;;13.66;100.00;95906.41;5040981;28;20099;-76
2021/08/26 09:57:01;;;;;;;8.40;4.20;;;;;;;13.80;100.00;95910.00;5085788;28;20027;-75
2021/08/26 09:59:56;;;;;;;7.23;5.53;;;;;;;13.83;100.00;95906.19;5063172;28;20013;-76
2021/08/26 10:02:24;;;;;;;8.97;5.90;;;;;;;14.01;100.00;95897.81;5063362;28;20039;-76
2021/08/26 10:04:50;;;;;;;7.37;5.80;;;;;;;14.14;100.00;95905.88;5084546;28;20085;-76
2021/08/26 10:07:17;;;;;;;6.43;4.90;;;;;;;13.96;100.00;95910.78;5082821;28;20039;-76
2021/08/26 10:09:44;;;;;;;7.63;4.90;;;;;;;14.10;100.00;95901.97;5066736;28;20115;-75
2021/08/26 10:12:12;;;;;;;5.87;4.23;;;;;;;14.04;100.00;95905.38;5084454;28;20627;-75
2021/08/26 10:14:41;;;;;;;6.97;3.97;;;;;;;14.25;100.00;95909.81;5087826;28;20031;-76
2021/08/26 10:17:09;;;;;;;6.07;4.10;;;;;;;14.42;100.00;95894.50;5067483;28;20130;-75
2021/08/26 10:19:36;;;;;;;5.60;3.63;;;;;;;14.55;100.00;95899.94;5088588;28;20525;-75
2021/08/26 10:22:02;;;;;;;6.53;4.27;;;;;;;14.49;100.00;95900.69;5085184;28;20497;-75
2021/08/26 10:24:28;;;;;;;6.90;4.33;;;;;;;14.41;100.00;95903.47;5088145;28;20020;-76
2021/08/26 10:26:59;;;;;;;6.50;3.75;;;;;;;14.26;100.00;95907.00;5075469;28;20063;-76
2021/08/26 10:29:25;;;;;;;5.00;3.00;;;;;;;14.47;100.00;95903.50;5067297;28;20032;-76
2021/08/26 10:31:58;;;;;;;3.67;2.58;;;;;;;14.44;100.00;95911.03;5068004;28;20615;-76
2021/08/26 10:34:26;;;;;;;4.60;2.88;;;;;;;14.41;100.00;95895.53;5061340;28;20069;-77
2021/08/26 10:36:55;;;;;;;4.55;3.05;;;;;;;14.33;100.00;95896.50;5075063;28;20024;-75
2021/08/26 10:39:39;;;;;;;4.28;2.97;;;;;;;14.43;100.00;95902.25;5075038;28;20036;-77
2021/08/26 10:42:29;;;;;;;4.97;3.60;;;;;;;14.31;100.00;95904.59;5075471;28;20119;-75
2021/08/26 10:45:05;;;;;;;5.57;3.50;;;;;;;14.41;100.00;95898.97;5070542;28;20083;-77
2021/08/26 10:47:46;;;;;;;4.17;2.60;;;;;;;14.35;100.00;95902.38;5084309;28;20028;-77
2021/08/26 10:50:16;;;;;;;5.53;2.73;;;;;;;14.25;100.00;95900.09;5069939;28;20120;-76
2021/08/26 10:53:04;;;;;;;3.33;2.37;;;;;;;14.41;100.00;95903.47;5086164;28;20020;-76
2021/08/26 10:55:31;;;;;;;4.50;2.75;;;;;;;14.29;100.00;95900.53;5086081;28;20115;-76
2021/08/26 10:58:25;;;;;;;5.33;2.73;;;;;;;13.90;100.00;95897.31;5074249;28;20023;-77
2021/08/26 11:00:58;;;;;;;4.17;2.50;;;;;;;14.03;100.00;95898.44;5069275;28;20032;-76
2021/08/26 11:03:51;;;;;;;5.13;2.75;;;;;;;13.94;100.00;95897.75;5079520;28;20085;-75
2021/08/26 11:06:16;;;;;;;4.10;2.77;;;;;;;13.86;100.00;95895.25;5077367;28;20132;-75
2021/08/26 11:08:44;;;;;;;2.47;1.60;;;;;;;13.83;100.00;95899.06;5067538;28;20549;-76
2021/08/26 11:11:31;;;;;;;2.67;1.73;;;;;;;14.20;100.00;95897.19;5087055;28;20115;-75
2021/08/26 11:14:03;;;;;;;3.67;2.07;;;;;;;14.02;100.00;95904.75;5079541;28;20363;-75
2021/08/26 11:16:28;;;;;;;2.70;1.70;;;;;;;14.27;100.00;95902.53;5068816;28;20033;-75
2021/08/26 11:19:16;;;;;;;3.30;1.63;;;;;;;14.36;100.00;95901.41;5060485;28;20013;-76
2021/08/26 11:21:45;;;;;;;2.40;1.53;;;;;;;14.59;100.00;95898.56;5064338;28;20024;-75
2021/08/26 11:24:19;;;;;;;2.50;1.40;;;;;;;14.47;100.00;95897.41;5062513;28;20029;-75
2021/08/26 11:26:49;;;;;;;2.47;1.80;;;;;;;14.24;100.00;95902.91;5065746;28;20032;-75